sensor_id;sensor_type;location;lat;lon;timestamp;pressure;altitude;pressure_sealevel;temperature;humidity
59315;BME280;46521;50.160;20.802;2024-02-15T00:46:47;100259.87;;;3.72;67.83
59315;BME280;46521;50.160;20.802;2024-02-15T00:56:51;100271.16;;;3.72;68.06
59315;BME280;46521;50.160;20.802;2024-02-15T01:06:53;100264.13;;;3.73;68.01
59315;BME280;46521;50.160;20.802;2024-02-15T01:16:56;100262.05;;;3.78;68.33
59315;BME280;46521;50.160;20.802;2024-02-15T02:30:52;100263.91;;;3.89;68.96
59315;BME280;46521;50.160;20.802;2024-02-15T02:41:01;100267.13;;;3.92;69.18
59315;BME280;46521;50.160;20.802;2024-02-15T03:01:05;100264.34;;;4.07;69.54
59315;BME280;46521;50.160;20.802;2024-02-15T03:11:11;100270.84;;;4.01;69.39
59315;BME280;46521;50.160;20.802;2024-02-15T03:31:55;100284.26;;;3.96;69.83
59315;BME280;46521;50.160;20.802;2024-02-15T03:42:23;100288.67;;;3.96;70.01
59315;BME280;46521;50.160;20.802;2024-02-15T04:02:53;100295.37;;;4.00;70.24
59315;BME280;46521;50.160;20.802;2024-02-15T04:12:56;100281.84;;;4.06;70.81
59315;BME280;46521;50.160;20.802;2024-02-15T04:23:03;100264.73;;;4.13;70.69
59315;BME280;46521;50.160;20.802;2024-02-15T04:33:07;100262.86;;;4.15;70.78
59315;BME280;46521;50.160;20.802;2024-02-15T04:43:09;100264.28;;;4.20;70.80
59315;BME280;46521;50.160;20.802;2024-02-15T04:53:15;100269.30;;;4.23;71.07
59315;BME280;46521;50.160;20.802;2024-02-15T05:03:17;100270.98;;;4.24;70.83
59315;BME280;46521;50.160;20.802;2024-02-15T05:13:19;100273.86;;;4.32;71.21
59315;BME280;46521;50.160;20.802;2024-02-15T05:33:44;100286.73;;;4.35;71.25
59315;BME280;46521;50.160;20.802;2024-02-15T05:54:17;100304.62;;;4.41;71.41
59315;BME280;46521;50.160;20.802;2024-02-15T06:14:25;100304.02;;;4.38;71.30
59315;BME280;46521;50.160;20.802;2024-02-15T06:34:36;100299.61;;;4.38;71.46
59315;BME280;46521;50.160;20.802;2024-02-15T06:44:57;100313.19;;;4.43;71.47
59315;BME280;46521;50.160;20.802;2024-02-15T06:54:59;100307.50;;;4.49;71.63
59315;BME280;46521;50.160;20.802;2024-02-15T07:05:01;100321.13;;;4.55;71.89
59315;BME280;46521;50.160;20.802;2024-02-15T07:15:05;100325.91;;;4.61;71.51
59315;BME280;46521;50.160;20.802;2024-02-15T07:25:09;100321.64;;;4.71;71.99
59315;BME280;46521;50.160;20.802;2024-02-15T07:35:11;100331.22;;;4.83;72.10
59315;BME280;46521;50.160;20.802;2024-02-15T07:45:13;100341.62;;;4.96;72.22
59315;BME280;46521;50.160;20.802;2024-02-15T08:06:52;100337.03;;;5.22;72.06
59315;BME280;46521;50.160;20.802;2024-02-15T08:16:54;100333.25;;;5.38;72.96
59315;BME280;46521;50.160;20.802;2024-02-15T08:26:56;100345.42;;;5.50;72.70
59315;BME280;46521;50.160;20.802;2024-02-15T08:37:00;100344.45;;;5.63;72.61
59315;BME280;46521;50.160;20.802;2024-02-15T08:47:04;100351.13;;;5.78;72.57
59315;BME280;46521;50.160;20.802;2024-02-15T08:57:06;100346.72;;;5.90;72.73
59315;BME280;46521;50.160;20.802;2024-02-15T09:07:07;100338.86;;;6.01;72.77
59315;BME280;46521;50.160;20.802;2024-02-15T09:17:10;100340.27;;;6.17;72.44
59315;BME280;46521;50.160;20.802;2024-02-15T09:27:14;100343.20;;;6.35;72.15
59315;BME280;46521;50.160;20.802;2024-02-15T09:37:16;100348.44;;;6.46;72.03
59315;BME280;46521;50.160;20.802;2024-02-15T09:57:21;100338.95;;;6.87;72.33
59315;BME280;46521;50.160;20.802;2024-02-15T10:07:25;100328.16;;;7.11;72.43
59315;BME280;46521;50.160;20.802;2024-02-15T10:17:30;100329.81;;;7.33;71.62
59315;BME280;46521;50.160;20.802;2024-02-15T10:27:36;100317.32;;;7.56;71.78
59315;BME280;46521;50.160;20.802;2024-02-15T10:38:08;100315.07;;;7.83;71.96
59315;BME280;46521;50.160;20.802;2024-02-15T10:48:12;100315.11;;;8.02;72.01
59315;BME280;46521;50.160;20.802;2024-02-15T10:58:19;100303.22;;;8.18;71.09
59315;BME280;46521;50.160;20.802;2024-02-15T11:08:26;100306.70;;;8.28;71.80
59315;BME280;46521;50.160;20.802;2024-02-15T11:18:54;100302.27;;;8.38;71.29
59315;BME280;46521;50.160;20.802;2024-02-15T11:28:56;100292.59;;;8.48;71.23
59315;BME280;46521;50.160;20.802;2024-02-15T11:39:42;100280.66;;;8.64;71.35
59315;BME280;46521;50.160;20.802;2024-02-15T12:00:27;100263.49;;;9.07;71.05
59315;BME280;46521;50.160;20.802;2024-02-15T12:11:14;100257.98;;;9.38;71.41
59315;BME280;46521;50.160;20.802;2024-02-15T12:21:34;100255.50;;;9.64;70.79
59315;BME280;46521;50.160;20.802;2024-02-15T12:31:37;100252.07;;;10.00;70.41
59315;BME280;46521;50.160;20.802;2024-02-15T12:41:40;100232.78;;;10.17;70.33
59315;BME280;46521;50.160;20.802;2024-02-15T12:51:51;100222.63;;;10.31;70.00
59315;BME280;46521;50.160;20.802;2024-02-15T13:01:54;100222.36;;;10.34;69.68
59315;BME280;46521;50.160;20.802;2024-02-15T13:11:55;100226.67;;;10.35;69.61
59315;BME280;46521;50.160;20.802;2024-02-15T13:21:58;100212.77;;;10.33;68.94
59315;BME280;46521;50.160;20.802;2024-02-15T13:31:59;100209.88;;;10.26;69.59
59315;BME280;46521;50.160;20.802;2024-02-15T13:42:01;100209.66;;;10.19;69.20
59315;BME280;46521;50.160;20.802;2024-02-15T13:52:04;100206.95;;;10.11;68.98
59315;BME280;46521;50.160;20.802;2024-02-15T14:02:07;100204.36;;;10.01;68.98
59315;BME280;46521;50.160;20.802;2024-02-15T14:12:08;100197.63;;;9.89;68.61
59315;BME280;46521;50.160;20.802;2024-02-15T14:22:10;100209.57;;;9.75;68.68
59315;BME280;46521;50.160;20.802;2024-02-15T14:32:17;100212.98;;;9.58;68.95
59315;BME280;46521;50.160;20.802;2024-02-15T14:42:37;100203.22;;;9.40;69.17
59315;BME280;46521;50.160;20.802;2024-02-15T14:52:40;100198.96;;;9.29;69.18
59315;BME280;46521;50.160;20.802;2024-02-15T15:02:41;100204.29;;;9.19;69.20
59315;BME280;46521;50.160;20.802;2024-02-15T15:12:43;100198.67;;;9.05;69.59
59315;BME280;46521;50.160;20.802;2024-02-15T15:22:46;100211.77;;;8.87;69.56
59315;BME280;46521;50.160;20.802;2024-02-15T15:32:48;100218.20;;;8.64;69.83
59315;BME280;46521;50.160;20.802;2024-02-15T15:42:51;100232.93;;;8.47;70.06
59315;BME280;46521;50.160;20.802;2024-02-15T15:52:52;100227.78;;;8.36;69.87
59315;BME280;46521;50.160;20.802;2024-02-15T16:02:54;100228.61;;;8.27;69.59
59315;BME280;46521;50.160;20.802;2024-02-15T16:12:57;100229.58;;;8.16;70.32
59315;BME280;46521;50.160;20.802;2024-02-15T16:23:04;100234.70;;;7.98;70.22
59315;BME280;46521;50.160;20.802;2024-02-15T16:33:06;100259.77;;;7.83;70.32
59315;BME280;46521;50.160;20.802;2024-02-15T16:43:08;100254.17;;;7.66;70.42
59315;BME280;46521;50.160;20.802;2024-02-15T16:53:09;100266.33;;;7.48;70.42
59315;BME280;46521;50.160;20.802;2024-02-15T17:03:11;100266.09;;;7.30;70.75
59315;BME280;46521;50.160;20.802;2024-02-15T17:13:14;100278.66;;;7.16;70.32
59315;BME280;46521;50.160;20.802;2024-02-15T17:23:16;100283.84;;;7.07;70.31
59315;BME280;46521;50.160;20.802;2024-02-15T17:33:18;100270.77;;;6.95;70.15
59315;BME280;46521;50.160;20.802;2024-02-15T17:43:20;100275.97;;;6.85;70.67
59315;BME280;46521;50.160;20.802;2024-02-15T17:53:21;100279.24;;;6.78;70.86
59315;BME280;46521;50.160;20.802;2024-02-15T18:03:23;100279.50;;;6.75;70.72
59315;BME280;46521;50.160;20.802;2024-02-15T18:13:27;100285.77;;;6.62;70.19
59315;BME280;46521;50.160;20.802;2024-02-15T18:23:29;100295.39;;;6.52;70.36
59315;BME280;46521;50.160;20.802;2024-02-15T18:33:30;100292.20;;;6.37;70.67
59315;BME280;46521;50.160;20.802;2024-02-15T18:43:33;100305.63;;;6.23;71.49
59315;BME280;46521;50.160;20.802;2024-02-15T18:53:35;100315.08;;;6.14;71.12
59315;BME280;46521;50.160;20.802;2024-02-15T19:03:38;100324.05;;;6.11;71.82
59315;BME280;46521;50.160;20.802;2024-02-15T19:13:41;100318.67;;;6.02;71.79
59315;BME280;46521;50.160;20.802;2024-02-15T19:23:42;100311.65;;;5.91;71.68
59315;BME280;46521;50.160;20.802;2024-02-15T19:33:46;100313.20;;;5.82;71.71
59315;BME280;46521;50.160;20.802;2024-02-15T19:43:49;100312.00;;;5.75;71.60
59315;BME280;46521;50.160;20.802;2024-02-15T19:53:53;100312.95;;;5.63;71.37
59315;BME280;46521;50.160;20.802;2024-02-15T20:03:54;100310.34;;;5.51;71.37
59315;BME280;46521;50.160;20.802;2024-02-15T20:13:57;100321.78;;;5.39;72.28
59315;BME280;46521;50.160;20.802;2024-02-15T20:24:00;100314.14;;;5.36;71.80
59315;BME280;46521;50.160;20.802;2024-02-15T20:34:05;100311.52;;;5.36;71.68
59315;BME280;46521;50.160;20.802;2024-02-15T20:44:07;100306.27;;;5.24;71.68
59315;BME280;46521;50.160;20.802;2024-02-15T20:54:13;100312.84;;;5.19;71.83
59315;BME280;46521;50.160;20.802;2024-02-15T21:04:16;100315.08;;;5.12;71.72
59315;BME280;46521;50.160;20.802;2024-02-15T21:14:18;100314.83;;;5.04;71.82
59315;BME280;46521;50.160;20.802;2024-02-15T21:24:19;100316.72;;;4.91;72.06
59315;BME280;46521;50.160;20.802;2024-02-15T21:34:21;100316.17;;;4.74;71.85
59315;BME280;46521;50.160;20.802;2024-02-15T21:44:22;100300.42;;;4.63;71.99
59315;BME280;46521;50.160;20.802;2024-02-15T21:54:24;100303.98;;;4.62;71.85
59315;BME280;46521;50.160;20.802;2024-02-15T22:04:25;100303.95;;;4.50;71.80
59315;BME280;46521;50.160;20.802;2024-02-15T22:14:27;100310.80;;;4.40;72.27
59315;BME280;46521;50.160;20.802;2024-02-15T22:24:28;100313.75;;;4.36;72.42
59315;BME280;46521;50.160;20.802;2024-02-15T22:34:30;100304.46;;;4.31;71.70
59315;BME280;46521;50.160;20.802;2024-02-15T22:44:32;100304.91;;;4.25;72.35
59315;BME280;46521;50.160;20.802;2024-02-15T22:54:35;100303.28;;;4.11;72.30
59315;BME280;46521;50.160;20.802;2024-02-15T23:04:40;100298.70;;;4.02;72.21
59315;BME280;46521;50.160;20.802;2024-02-15T23:14:42;100301.69;;;3.85;72.47
59315;BME280;46521;50.160;20.802;2024-02-15T23:24:43;100293.98;;;3.70;72.44
59315;BME280;46521;50.160;20.802;2024-02-15T23:34:45;100299.45;;;3.54;72.58
59315;BME280;46521;50.160;20.802;2024-02-15T23:44:48;100292.47;;;3.42;72.31
59315;BME280;46521;50.160;20.802;2024-02-15T23:54:50;100296.75;;;3.17;72.27
